createdAt,value
2018-07-16T00:00:17.875Z,16.67
2018-07-16T00:01:17.875Z,16.67
2018-07-16T00:02:17.845Z,16.60
2018-07-16T00:03:17.828Z,16.56
2018-07-16T00:04:17.812Z,16.49
2018-07-16T00:05:17.797Z,16.48
2018-07-16T00:06:17.800Z,16.48
2018-07-16T00:07:17.764Z,16.49
2018-07-16T00:08:17.748Z,16.52
2018-07-16T00:09:17.732Z,16.46
2018-07-16T00:10:17.716Z,16.50
2018-07-16T00:11:17.703Z,16.53
2018-07-16T00:12:17.701Z,16.56
2018-07-16T00:13:17.669Z,16.70
2018-07-16T00:14:17.653Z,16.67
2018-07-16T00:15:17.638Z,16.66
2018-07-16T00:16:17.620Z,16.75
2018-07-16T00:17:17.605Z,16.71
2018-07-16T00:18:17.608Z,16.68
2018-07-16T00:19:17.576Z,16.68
2018-07-16T00:20:17.559Z,16.71
2018-07-16T00:21:17.541Z,16.63
2018-07-16T00:22:17.525Z,16.61
2018-07-16T00:23:17.508Z,16.66
2018-07-16T00:24:17.513Z,16.64
2018-07-16T00:25:17.476Z,16.58
2018-07-16T00:26:17.463Z,16.57
2018-07-16T00:27:17.444Z,16.46
2018-07-16T00:28:17.428Z,16.45
2018-07-16T00:29:17.411Z,16.46
2018-07-16T00:30:17.411Z,16.46
2018-07-16T00:31:17.383Z,16.49
2018-07-16T00:32:17.363Z,16.50
2018-07-16T00:33:17.350Z,16.49
2018-07-16T00:34:17.331Z,16.53
2018-07-16T00:35:17.316Z,16.49
2018-07-16T00:36:17.314Z,16.39
2018-07-16T00:37:17.282Z,16.38
2018-07-16T00:38:17.266Z,16.28
2018-07-16T00:39:17.250Z,16.27
2018-07-16T00:40:17.234Z,16.20
2018-07-16T00:41:17.216Z,16.12
2018-07-16T00:42:17.222Z,16.17
2018-07-16T00:43:17.186Z,16.04
2018-07-16T00:44:17.228Z,16.08
2018-07-16T00:45:17.154Z,16.07
2018-07-16T00:46:17.136Z,16.07
2018-07-16T00:47:17.119Z,16.05
2018-07-16T00:48:17.123Z,16.01
2018-07-16T00:49:17.084Z,16.01
2018-07-16T00:50:17.070Z,15.97
2018-07-16T00:51:17.054Z,16.02
2018-07-16T00:52:17.041Z,16.01
2018-07-16T00:53:17.024Z,16.00
2018-07-16T00:54:17.020Z,15.87
2018-07-16T00:55:16.988Z,15.75
2018-07-16T00:56:16.974Z,15.76
2018-07-16T00:57:16.958Z,15.78
2018-07-16T00:58:16.939Z,15.74
2018-07-16T00:59:16.923Z,15.71
2018-07-16T01:00:16.926Z,15.72
2018-07-16T01:01:16.889Z,15.76
2018-07-16T01:02:16.875Z,15.78
2018-07-16T01:03:16.860Z,15.84
2018-07-16T01:04:16.841Z,15.83
2018-07-16T01:05:16.826Z,15.92
2018-07-16T01:06:16.822Z,15.82
2018-07-16T01:07:16.789Z,15.87
2018-07-16T01:08:16.774Z,16.00
2018-07-16T01:09:16.755Z,16.01
2018-07-16T01:10:16.740Z,16.02
2018-07-16T01:11:16.723Z,16.00
2018-07-16T01:12:16.721Z,15.97
2018-07-16T01:13:16.691Z,15.96
2018-07-16T01:14:16.674Z,15.94
2018-07-16T01:15:16.661Z,15.84
2018-07-16T01:16:16.640Z,15.72
2018-07-16T01:17:16.623Z,15.76
2018-07-16T01:18:16.627Z,15.69
2018-07-16T01:19:16.592Z,15.64
2018-07-16T01:20:16.573Z,15.59
2018-07-16T01:21:16.557Z,15.57
2018-07-16T01:22:16.540Z,15.50
2018-07-16T01:23:16.527Z,15.50
2018-07-16T01:24:16.521Z,15.50
2018-07-16T01:25:16.490Z,15.49
2018-07-16T01:26:16.474Z,15.50
2018-07-16T01:27:16.457Z,15.50
2018-07-16T01:28:16.443Z,15.39
2018-07-16T01:29:16.424Z,15.36
2018-07-16T01:30:16.427Z,15.36
2018-07-16T01:31:16.391Z,15.34
2018-07-16T01:32:16.376Z,15.38
2018-07-16T01:33:16.357Z,15.38
2018-07-16T01:34:16.339Z,15.36
2018-07-16T01:35:16.324Z,15.34
2018-07-16T01:36:16.328Z,15.27
2018-07-16T01:37:16.288Z,15.25
2018-07-16T01:38:16.273Z,15.20
2018-07-16T01:39:16.256Z,15.20
2018-07-16T01:40:16.238Z,15.21
2018-07-16T01:41:16.221Z,15.14
2018-07-16T01:42:16.221Z,15.17
2018-07-16T01:43:16.189Z,15.06
2018-07-16T01:44:16.175Z,15.01
2018-07-16T01:45:16.157Z,14.94
2018-07-16T01:46:16.137Z,15.02
2018-07-16T01:47:16.121Z,14.83
2018-07-16T01:48:16.120Z,15.01
2018-07-16T01:49:16.087Z,14.89
2018-07-16T01:50:16.070Z,14.86
2018-07-16T01:51:16.055Z,14.77
2018-07-16T01:52:16.037Z,14.77
2018-07-16T01:53:16.019Z,14.73
2018-07-16T01:54:16.024Z,14.75
2018-07-16T01:55:15.987Z,14.81
2018-07-16T01:56:15.968Z,14.73
2018-07-16T01:57:15.953Z,14.88
2018-07-16T01:58:15.935Z,14.81
2018-07-16T01:59:15.919Z,14.84
2018-07-16T02:00:15.917Z,14.81
2018-07-16T02:01:15.885Z,14.80
2018-07-16T02:02:15.867Z,14.88
2018-07-16T02:03:15.849Z,14.91
2018-07-16T02:04:15.832Z,14.91
2018-07-16T02:05:15.815Z,14.94
2018-07-16T02:06:15.814Z,14.99
2018-07-16T02:07:15.781Z,14.95
2018-07-16T02:08:15.768Z,15.20
2018-07-16T02:09:15.746Z,15.21
2018-07-16T02:10:15.730Z,15.21
2018-07-16T02:11:15.714Z,15.25
2018-07-16T02:12:15.720Z,15.21
2018-07-16T02:13:15.679Z,15.25
2018-07-16T02:14:15.661Z,15.28
2018-07-16T02:15:15.645Z,15.29
2018-07-16T02:16:15.627Z,15.27
2018-07-16T02:17:15.610Z,15.25
2018-07-16T02:18:15.609Z,15.29
2018-07-16T02:19:15.576Z,15.28
2018-07-16T02:20:15.558Z,15.17
2018-07-16T02:21:15.540Z,15.25
2018-07-16T02:22:15.527Z,15.27
2018-07-16T02:23:15.508Z,15.11
2018-07-16T02:24:15.505Z,15.09
2018-07-16T02:25:15.472Z,15.02
2018-07-16T02:26:15.457Z,14.95
2018-07-16T02:27:15.441Z,14.96
2018-07-16T02:28:15.421Z,14.99
2018-07-16T02:29:15.407Z,14.86
2018-07-16T02:30:15.411Z,14.94
2018-07-16T02:31:15.370Z,14.96
2018-07-16T02:32:15.353Z,14.98
2018-07-16T02:33:15.335Z,14.95
2018-07-16T02:34:15.320Z,14.91
2018-07-16T02:35:15.302Z,15.01
2018-07-16T02:36:15.300Z,15.06
2018-07-16T02:37:15.271Z,15.14
2018-07-16T02:38:15.250Z,15.14
2018-07-16T02:39:15.233Z,15.09
2018-07-16T02:40:15.215Z,15.20
2018-07-16T02:41:15.199Z,15.21
2018-07-16T02:42:15.197Z,15.16
2018-07-16T02:43:15.165Z,15.14
2018-07-16T02:44:15.146Z,15.10
2018-07-16T02:45:15.129Z,14.94
2018-07-16T02:46:15.111Z,14.88
2018-07-16T02:47:15.096Z,14.83
2018-07-16T02:48:15.099Z,14.88
2018-07-16T02:49:15.060Z,14.81
2018-07-16T02:50:15.042Z,14.80
2018-07-16T02:51:15.037Z,14.77
2018-07-16T02:52:15.008Z,14.77
2018-07-16T02:53:14.990Z,14.73
2018-07-16T02:54:14.994Z,14.61
2018-07-16T02:55:14.956Z,14.68
2018-07-16T02:56:15.010Z,14.69
2018-07-16T02:57:14.924Z,14.65
2018-07-16T02:58:14.905Z,14.70
2018-07-16T02:59:14.885Z,14.78
2018-07-16T03:00:14.901Z,14.78
2018-07-16T03:01:14.852Z,14.88
2018-07-16T03:02:14.834Z,14.78
2018-07-16T03:03:14.816Z,14.83
2018-07-16T03:04:14.799Z,14.73
2018-07-16T03:05:14.783Z,14.81
2018-07-16T03:06:14.786Z,14.78
2018-07-16T03:07:14.746Z,14.78
2018-07-16T03:08:14.731Z,14.73
2018-07-16T03:09:14.713Z,14.68
2018-07-16T03:10:14.694Z,14.62
2018-07-16T03:11:14.677Z,14.73
2018-07-16T03:12:14.675Z,14.78
2018-07-16T03:13:14.641Z,14.70
2018-07-16T03:14:14.625Z,14.68
2018-07-16T03:15:14.607Z,14.68
2018-07-16T03:16:14.590Z,14.69
2018-07-16T03:17:14.571Z,14.72
2018-07-16T03:18:14.677Z,14.69
2018-07-16T03:19:14.539Z,14.73
2018-07-16T03:20:14.519Z,14.69
2018-07-16T03:21:14.502Z,14.75
2018-07-16T03:22:14.485Z,14.75
2018-07-16T03:23:14.523Z,14.72
2018-07-16T03:24:14.472Z,14.72
2018-07-16T03:25:14.431Z,14.62
2018-07-16T03:26:14.415Z,14.60
2018-07-16T03:27:14.397Z,14.65
2018-07-16T03:28:14.379Z,14.70
2018-07-16T03:29:14.361Z,14.65
2018-07-16T03:30:14.358Z,14.57
2018-07-16T03:31:14.326Z,14.70
2018-07-16T03:32:14.311Z,14.70
2018-07-16T03:33:14.290Z,14.77
2018-07-16T03:34:14.274Z,14.81
2018-07-16T03:35:14.270Z,14.77
2018-07-16T03:36:14.238Z,14.73
2018-07-16T03:37:14.220Z,14.72
2018-07-16T03:38:14.202Z,14.68
2018-07-16T03:39:14.185Z,14.80
2018-07-16T03:40:14.166Z,14.77
2018-07-16T03:41:14.188Z,14.73
2018-07-16T03:42:14.132Z,14.77
2018-07-16T03:43:14.115Z,14.73
2018-07-16T03:44:14.094Z,14.80
2018-07-16T03:45:14.079Z,14.78
2018-07-16T03:46:14.063Z,14.78
2018-07-16T03:47:14.059Z,14.68
2018-07-16T03:48:14.027Z,14.72
2018-07-16T03:49:14.007Z,14.68
2018-07-16T03:50:13.991Z,14.73
2018-07-16T03:51:13.973Z,14.72
2018-07-16T03:52:13.955Z,14.78
2018-07-16T03:53:13.953Z,14.77
2018-07-16T03:54:13.919Z,14.69
2018-07-16T03:55:13.902Z,14.72
2018-07-16T03:56:13.885Z,14.68
2018-07-16T03:57:13.868Z,14.68
2018-07-16T03:58:13.849Z,14.55
2018-07-16T03:59:13.852Z,14.55
2018-07-16T04:00:13.816Z,14.54
2018-07-16T04:01:13.796Z,14.60
2018-07-16T04:02:13.779Z,14.55
2018-07-16T04:03:13.764Z,14.60
2018-07-16T04:04:13.745Z,14.57
2018-07-16T04:05:13.745Z,14.47
2018-07-16T04:06:13.708Z,14.54
2018-07-16T04:07:13.690Z,14.50
2018-07-16T04:08:13.675Z,14.50
2018-07-16T04:09:13.654Z,14.43
2018-07-16T04:10:13.634Z,14.45
2018-07-16T04:11:13.636Z,14.39
2018-07-16T04:12:13.600Z,14.29
2018-07-16T04:13:13.584Z,14.29
2018-07-16T04:14:13.567Z,14.27
2018-07-16T04:15:13.548Z,14.33
2018-07-16T04:16:13.530Z,14.33
2018-07-16T04:17:13.537Z,14.33
2018-07-16T04:18:13.496Z,14.45
2018-07-16T04:19:13.479Z,14.57
2018-07-16T04:20:13.461Z,14.55
2018-07-16T04:21:13.442Z,14.55
2018-07-16T04:22:13.425Z,14.61
2018-07-16T04:23:13.427Z,14.72
2018-07-16T04:24:13.391Z,14.77
2018-07-16T04:25:13.372Z,14.89
2018-07-16T04:26:13.356Z,14.86
2018-07-16T04:27:13.338Z,14.84
2018-07-16T04:28:13.320Z,14.94
2018-07-16T04:29:13.318Z,14.92
2018-07-16T04:30:13.289Z,14.81
2018-07-16T04:31:13.267Z,14.94
2018-07-16T04:32:13.249Z,14.80
2018-07-16T04:33:13.232Z,14.64
2018-07-16T04:34:13.218Z,14.61
2018-07-16T04:35:13.221Z,14.69
2018-07-16T04:36:13.185Z,14.61
2018-07-16T04:37:13.162Z,14.77
2018-07-16T04:38:13.145Z,14.78
2018-07-16T04:39:13.127Z,14.89
2018-07-16T04:40:13.110Z,14.94
2018-07-16T04:41:13.115Z,15.01
2018-07-16T04:42:13.077Z,15.02
2018-07-16T04:43:13.057Z,15.11
2018-07-16T04:44:13.040Z,15.14
2018-07-16T04:45:13.021Z,15.20
2018-07-16T04:46:13.005Z,15.20
2018-07-16T04:47:13.004Z,15.21
2018-07-16T04:48:12.969Z,15.19
2018-07-16T04:49:12.951Z,15.23
2018-07-16T04:50:12.935Z,15.25
2018-07-16T04:51:12.917Z,15.27
2018-07-16T04:52:12.899Z,15.39
2018-07-16T04:53:12.902Z,15.39
2018-07-16T04:54:12.866Z,15.38
2018-07-16T04:55:12.848Z,15.39
2018-07-16T04:56:12.870Z,15.39
2018-07-16T04:57:12.814Z,15.35
2018-07-16T04:58:12.795Z,15.46
2018-07-16T04:59:12.803Z,15.49
2018-07-16T05:00:12.760Z,15.51
2018-07-16T05:01:12.747Z,15.50
2018-07-16T05:02:12.724Z,15.56
2018-07-16T05:03:12.743Z,15.60
2018-07-16T05:04:12.691Z,15.62
2018-07-16T05:05:12.691Z,15.60
2018-07-16T05:06:12.658Z,15.62
2018-07-16T05:07:12.639Z,15.59
2018-07-16T05:08:12.622Z,15.71
2018-07-16T05:09:12.604Z,15.68
2018-07-16T05:10:12.586Z,15.82
2018-07-16T05:11:12.591Z,15.78
2018-07-16T05:12:12.554Z,15.87
2018-07-16T05:13:12.535Z,15.96
2018-07-16T05:14:12.524Z,15.96
2018-07-16T05:15:12.502Z,15.89
2018-07-16T05:16:12.484Z,15.96
2018-07-16T05:17:12.481Z,15.97
2018-07-16T05:18:12.575Z,16.00
2018-07-16T05:19:12.432Z,16.07
2018-07-16T05:20:12.414Z,16.04
2018-07-16T05:21:12.397Z,15.97
2018-07-16T05:22:12.380Z,16.05
2018-07-16T05:23:12.379Z,16.05
2018-07-16T05:24:12.384Z,16.08
2018-07-16T05:25:12.330Z,16.17
2018-07-16T05:26:12.312Z,16.25
2018-07-16T05:27:12.295Z,16.24
2018-07-16T05:28:12.276Z,16.28
2018-07-16T05:29:12.282Z,16.43
2018-07-16T05:30:12.244Z,16.35
2018-07-16T05:31:12.225Z,16.41
2018-07-16T05:32:12.298Z,16.41
2018-07-16T05:33:12.192Z,16.56
2018-07-16T05:34:12.178Z,16.56
2018-07-16T05:35:12.174Z,16.68
2018-07-16T05:36:12.142Z,16.67
2018-07-16T05:37:12.125Z,16.78
2018-07-16T05:38:12.179Z,16.75
2018-07-16T05:39:12.091Z,16.91
2018-07-16T05:40:12.074Z,16.93
2018-07-16T05:41:12.072Z,16.98
2018-07-16T05:42:12.040Z,17.03
2018-07-16T05:43:12.023Z,17.14
2018-07-16T05:44:12.005Z,17.23
2018-07-16T05:45:11.989Z,17.23
2018-07-16T05:46:11.971Z,17.30
2018-07-16T05:47:11.977Z,17.34
2018-07-16T05:48:11.938Z,17.52
2018-07-16T05:49:11.923Z,17.78
2018-07-16T05:50:11.905Z,18.03
2018-07-16T05:51:11.891Z,18.12
2018-07-16T05:52:11.873Z,18.21
2018-07-16T05:53:11.868Z,18.23
2018-07-16T05:54:11.837Z,18.26
2018-07-16T05:55:11.822Z,18.39
2018-07-16T05:56:11.805Z,18.72
2018-07-16T05:57:11.788Z,19.07
2018-07-16T05:58:11.826Z,19.25
2018-07-16T05:59:11.770Z,19.56
2018-07-16T06:00:11.739Z,19.87
2018-07-16T06:01:11.724Z,19.98
2018-07-16T06:02:11.706Z,20.08
2018-07-16T06:03:11.692Z,20.38
2018-07-16T06:04:11.685Z,20.42
2018-07-16T06:05:11.660Z,20.38
2018-07-16T06:06:11.643Z,20.61
2018-07-16T06:07:11.631Z,20.70
2018-07-16T06:08:11.611Z,20.92
2018-07-16T06:09:11.613Z,21.10
2018-07-16T06:10:11.582Z,21.09
2018-07-16T06:11:11.569Z,21.09
2018-07-16T06:12:11.551Z,21.14
2018-07-16T06:13:11.536Z,21.40
2018-07-16T06:14:11.538Z,21.61
2018-07-16T06:15:11.509Z,21.49
2018-07-16T06:16:11.495Z,21.64
2018-07-16T06:17:11.478Z,21.72
2018-07-16T06:18:11.462Z,21.69
2018-07-16T06:19:11.447Z,21.99
2018-07-16T06:20:11.443Z,21.99
2018-07-16T06:21:11.418Z,22.03
2018-07-16T06:22:11.404Z,22.17
2018-07-16T06:23:11.392Z,22.42
2018-07-16T06:24:11.374Z,22.70
2018-07-16T06:25:11.374Z,22.83
2018-07-16T06:26:11.349Z,22.79
2018-07-16T06:27:11.332Z,23.00
2018-07-16T06:28:11.322Z,23.25
2018-07-16T06:29:11.303Z,23.33
2018-07-16T06:30:11.299Z,23.43
2018-07-16T06:31:11.275Z,23.50
2018-07-16T06:32:11.260Z,23.54
2018-07-16T06:33:11.247Z,23.32
2018-07-16T06:34:11.233Z,23.61
2018-07-16T06:35:11.240Z,23.70
2018-07-16T06:36:11.205Z,24.05
2018-07-16T06:37:11.192Z,24.15
2018-07-16T06:38:11.181Z,24.32
2018-07-16T06:39:11.165Z,24.52
2018-07-16T06:40:11.213Z,24.53
2018-07-16T06:41:11.477Z,24.80
2018-07-16T06:42:11.124Z,24.61
2018-07-16T06:43:11.114Z,25.02
2018-07-16T06:44:11.096Z,24.99
2018-07-16T06:45:11.082Z,24.62
2018-07-16T06:46:11.081Z,24.50
2018-07-16T06:47:11.057Z,24.49
2018-07-16T06:48:11.046Z,24.37
2018-07-16T06:49:11.031Z,23.94
2018-07-16T06:50:11.018Z,24.06
2018-07-16T06:51:11.043Z,24.18
2018-07-16T06:52:10.993Z,24.37
2018-07-16T06:53:10.975Z,24.45
2018-07-16T06:54:10.968Z,24.43
2018-07-16T06:55:11.002Z,24.49
2018-07-16T06:56:10.939Z,24.98
2018-07-16T06:57:10.936Z,24.84
2018-07-16T06:58:10.912Z,24.40
2018-07-16T06:59:10.900Z,24.50
2018-07-16T07:00:10.886Z,24.96
2018-07-16T07:01:10.875Z,24.73
2018-07-16T07:02:10.876Z,25.27
2018-07-16T07:03:10.847Z,25.24
2018-07-16T07:04:10.836Z,24.96
2018-07-16T07:05:10.820Z,25.10
2018-07-16T07:06:10.810Z,24.99
2018-07-16T07:07:10.836Z,25.21
2018-07-16T07:08:10.782Z,25.27
2018-07-16T07:09:10.770Z,25.36
2018-07-16T07:10:10.774Z,25.79
2018-07-16T07:11:10.744Z,26.02
2018-07-16T07:12:10.730Z,25.62
2018-07-16T07:13:10.731Z,25.64
2018-07-16T07:14:10.705Z,25.83
2018-07-16T07:15:10.694Z,25.64
2018-07-16T07:16:10.681Z,26.06
2018-07-16T07:17:10.667Z,26.87
2018-07-16T07:18:10.681Z,26.75
2018-07-16T07:19:10.643Z,26.69
2018-07-16T07:20:10.628Z,27.02
2018-07-16T07:21:10.616Z,26.52
2018-07-16T07:22:10.604Z,27.21
2018-07-16T07:23:10.618Z,27.19
2018-07-16T07:24:10.578Z,26.47
2018-07-16T07:25:10.563Z,25.95
2018-07-16T07:26:10.554Z,25.77
2018-07-16T07:27:10.540Z,26.32
2018-07-16T07:28:10.527Z,26.18
2018-07-16T07:29:10.526Z,26.07
2018-07-16T07:30:10.504Z,25.95
2018-07-16T07:31:10.493Z,26.20
2018-07-16T07:32:10.479Z,26.26
2018-07-16T07:33:10.467Z,26.28
2018-07-16T07:34:10.480Z,26.54
2018-07-16T07:35:10.544Z,26.13
2018-07-16T07:36:10.439Z,25.82
2018-07-16T07:37:10.416Z,25.33
2018-07-16T07:38:10.403Z,24.71
2018-07-16T07:39:10.413Z,24.13
2018-07-16T07:40:10.378Z,23.87
2018-07-16T07:41:10.366Z,23.87
2018-07-16T07:42:10.355Z,23.75
2018-07-16T07:43:10.343Z,23.63
2018-07-16T07:44:10.329Z,23.53
2018-07-16T07:45:10.328Z,23.65
2018-07-16T07:46:10.307Z,23.63
2018-07-16T07:47:10.294Z,23.55
2018-07-16T07:48:10.281Z,23.63
2018-07-16T07:49:10.268Z,23.70
2018-07-16T07:50:10.266Z,23.63
2018-07-16T07:51:10.244Z,23.58
2018-07-16T07:52:10.231Z,23.51
2018-07-16T07:53:10.219Z,23.58
2018-07-16T07:54:10.266Z,23.73
2018-07-16T07:55:10.405Z,23.79
2018-07-16T07:56:10.181Z,23.72
2018-07-16T07:57:10.170Z,23.90
2018-07-16T07:58:10.158Z,23.97
2018-07-16T07:59:10.145Z,23.95
2018-07-16T08:00:10.152Z,24.08
2018-07-16T08:01:10.121Z,23.72
2018-07-16T08:02:10.109Z,23.72
2018-07-16T08:03:10.129Z,23.97
2018-07-16T08:04:10.099Z,23.91
2018-07-16T08:05:10.072Z,23.93
2018-07-16T08:06:10.078Z,23.94
2018-07-16T08:07:10.048Z,23.88
2018-07-16T08:08:10.035Z,23.85
2018-07-16T08:09:10.025Z,23.88
2018-07-16T08:10:10.010Z,23.83
2018-07-16T08:11:10.000Z,23.91
2018-07-16T08:12:09.996Z,24.09
2018-07-16T08:13:09.975Z,24.09
2018-07-16T08:14:09.961Z,24.22
2018-07-16T08:15:09.949Z,24.13
2018-07-16T08:16:09.937Z,24.15
2018-07-16T08:17:09.937Z,24.16
2018-07-16T08:18:09.912Z,24.21
2018-07-16T08:19:09.901Z,24.18
2018-07-16T08:20:09.887Z,24.31
2018-07-16T08:21:09.949Z,24.21
2018-07-16T08:22:09.874Z,24.28
2018-07-16T08:23:09.854Z,24.35
2018-07-16T08:24:09.839Z,24.28
2018-07-16T08:25:09.826Z,24.46
2018-07-16T08:26:09.815Z,24.53
2018-07-16T08:27:09.824Z,24.52
2018-07-16T08:28:09.794Z,24.52
2018-07-16T08:29:09.778Z,24.28
2018-07-16T08:30:09.766Z,24.13
2018-07-16T08:31:09.754Z,24.18
2018-07-16T08:32:09.741Z,24.37
2018-07-16T08:33:09.744Z,24.49
2018-07-16T08:34:09.720Z,24.49
2018-07-16T08:35:09.706Z,24.42
2018-07-16T08:36:09.696Z,24.50
2018-07-16T08:37:09.681Z,24.45
2018-07-16T08:38:09.680Z,24.53
2018-07-16T08:39:09.738Z,24.57
2018-07-16T08:40:09.644Z,24.62
2018-07-16T08:41:09.632Z,24.67
2018-07-16T08:42:09.622Z,24.65
2018-07-16T08:43:09.630Z,24.62
2018-07-16T08:44:09.596Z,24.65
2018-07-16T08:45:09.588Z,24.65
2018-07-16T08:46:09.629Z,24.71
2018-07-16T08:47:09.560Z,24.84
2018-07-16T08:48:09.545Z,24.83
2018-07-16T08:49:09.547Z,24.98
2018-07-16T08:50:09.525Z,25.08
2018-07-16T08:51:09.520Z,25.14
2018-07-16T08:52:09.499Z,25.27
2018-07-16T08:53:09.490Z,25.32
2018-07-16T08:54:09.486Z,25.35
2018-07-16T08:55:09.463Z,25.35
2018-07-16T08:56:09.451Z,25.14
2018-07-16T08:57:09.443Z,25.15
2018-07-16T08:58:09.429Z,25.25
2018-07-16T08:59:09.496Z,25.27
2018-07-16T09:00:09.405Z,25.30
2018-07-16T09:01:09.392Z,25.36
2018-07-16T09:02:09.384Z,25.36
2018-07-16T09:03:09.369Z,25.42
2018-07-16T09:04:09.401Z,25.46
2018-07-16T09:05:09.396Z,25.45
2018-07-16T09:06:09.331Z,25.55
2018-07-16T09:07:09.402Z,25.64
2018-07-16T09:08:09.312Z,25.57
2018-07-16T09:09:09.297Z,25.51
2018-07-16T09:10:09.302Z,25.55
2018-07-16T09:11:09.351Z,25.42
2018-07-16T09:12:09.262Z,25.51
2018-07-16T09:13:09.324Z,25.60
2018-07-16T09:14:09.245Z,25.57
2018-07-16T09:15:09.227Z,25.58
2018-07-16T09:16:09.225Z,25.52
2018-07-16T09:17:09.203Z,25.60
2018-07-16T09:18:09.193Z,25.57
2018-07-16T09:19:09.234Z,25.62
2018-07-16T09:20:09.167Z,25.61
2018-07-16T09:21:09.170Z,25.80
2018-07-16T09:22:09.145Z,25.80
2018-07-16T09:23:09.135Z,25.97
2018-07-16T09:24:09.121Z,25.82
2018-07-16T09:25:09.110Z,25.77
2018-07-16T09:26:09.110Z,25.70
2018-07-16T09:27:09.088Z,25.91
2018-07-16T09:28:09.074Z,25.95
2018-07-16T09:29:09.064Z,25.91
2018-07-16T09:30:09.075Z,25.90
2018-07-16T09:31:09.053Z,25.92
2018-07-16T09:32:09.030Z,25.80
2018-07-16T09:33:09.021Z,25.80
2018-07-16T09:34:09.007Z,26.07
2018-07-16T09:35:08.996Z,26.05
2018-07-16T09:36:08.999Z,26.20
2018-07-16T09:37:08.981Z,26.20
2018-07-16T09:38:09.002Z,26.20
2018-07-16T09:39:08.981Z,26.06
2018-07-16T09:40:08.937Z,26.09
2018-07-16T09:41:08.926Z,26.28
2018-07-16T09:42:08.925Z,26.37
2018-07-16T09:43:08.903Z,26.25
2018-07-16T09:44:08.932Z,26.18
2018-07-16T09:45:08.881Z,26.09
2018-07-16T09:46:08.870Z,26.29
2018-07-16T09:47:08.879Z,26.23
2018-07-16T09:48:08.845Z,26.26
2018-07-16T09:49:08.835Z,26.13
2018-07-16T09:50:08.823Z,26.21
2018-07-16T09:51:08.813Z,26.29
2018-07-16T09:52:08.801Z,26.44
2018-07-16T09:53:08.801Z,26.55
2018-07-16T09:54:08.780Z,26.58
2018-07-16T09:55:08.778Z,26.66
2018-07-16T09:56:08.767Z,26.89
2018-07-16T09:57:08.745Z,26.92
2018-07-16T09:58:08.744Z,26.88
2018-07-16T09:59:08.722Z,27.03
2018-07-16T10:00:08.711Z,27.03
2018-07-16T10:01:08.702Z,27.12
2018-07-16T10:02:08.690Z,27.29
2018-07-16T10:03:08.702Z,27.43
2018-07-16T10:04:08.666Z,27.43
2018-07-16T10:05:08.656Z,27.36
2018-07-16T10:06:08.647Z,27.34
2018-07-16T10:07:08.636Z,27.19
2018-07-16T10:08:08.623Z,27.12
2018-07-16T10:09:08.624Z,27.25
2018-07-16T10:10:08.602Z,27.36
2018-07-16T10:11:08.591Z,27.31
2018-07-16T10:12:08.581Z,27.40
2018-07-16T10:13:08.569Z,27.43
2018-07-16T10:14:08.573Z,27.54
2018-07-16T10:15:08.549Z,27.39
2018-07-16T10:16:08.543Z,27.46
2018-07-16T10:17:08.525Z,27.40
2018-07-16T10:18:08.516Z,27.44
2018-07-16T10:19:08.529Z,27.62
2018-07-16T10:20:08.560Z,27.67
2018-07-16T10:21:08.485Z,27.77
2018-07-16T10:22:08.473Z,27.72
2018-07-16T10:23:08.465Z,28.02
2018-07-16T10:24:08.453Z,28.07
2018-07-16T10:25:08.455Z,28.11
2018-07-16T10:26:08.433Z,28.11
2018-07-16T10:27:08.421Z,27.75
2018-07-16T10:28:08.412Z,27.82
2018-07-16T10:29:08.402Z,27.78
2018-07-16T10:30:08.405Z,27.79
2018-07-16T10:31:08.378Z,27.92
2018-07-16T10:32:08.368Z,27.93
2018-07-16T10:33:08.362Z,28.04
2018-07-16T10:34:08.348Z,28.29
2018-07-16T10:35:08.359Z,28.44
2018-07-16T10:36:08.327Z,28.56
2018-07-16T10:37:08.316Z,28.31
2018-07-16T10:38:08.306Z,28.19
2018-07-16T10:39:08.303Z,28.22
2018-07-16T10:40:08.289Z,28.00
2018-07-16T10:41:08.287Z,28.11
2018-07-16T10:42:08.270Z,28.31
2018-07-16T10:43:08.256Z,28.43
2018-07-16T10:44:08.246Z,28.64
2018-07-16T10:45:08.236Z,28.68
2018-07-16T10:46:08.236Z,28.59
2018-07-16T10:47:08.221Z,28.37
2018-07-16T10:48:08.205Z,28.40
2018-07-16T10:49:08.196Z,28.48
2018-07-16T10:50:08.188Z,28.24
2018-07-16T10:51:08.200Z,28.22
2018-07-16T10:52:08.164Z,28.33
2018-07-16T10:53:08.156Z,28.52
2018-07-16T10:54:08.145Z,28.49
2018-07-16T10:55:08.147Z,28.41
2018-07-16T10:56:08.125Z,28.62
2018-07-16T10:57:08.127Z,28.61
2018-07-16T10:58:08.105Z,28.61
2018-07-16T10:59:08.096Z,28.66
2018-07-16T11:00:08.085Z,28.59
2018-07-16T11:01:08.075Z,28.74
2018-07-16T11:02:08.078Z,28.93
2018-07-16T11:03:08.098Z,29.00
2018-07-16T11:04:08.046Z,29.34
2018-07-16T11:05:08.036Z,29.89
2018-07-16T11:06:08.027Z,30.24
2018-07-16T11:07:08.044Z,30.62
2018-07-16T11:08:08.008Z,31.10
2018-07-16T11:09:07.998Z,31.13
2018-07-16T11:10:07.990Z,31.46
2018-07-16T11:11:07.978Z,31.41
2018-07-16T11:12:07.972Z,31.86
2018-07-16T11:13:07.971Z,31.81
2018-07-16T11:14:07.949Z,31.85
2018-07-16T11:15:08.042Z,31.93
2018-07-16T11:16:07.929Z,31.47
2018-07-16T11:17:07.920Z,31.61
2018-07-16T11:18:07.920Z,31.63
2018-07-16T11:19:07.905Z,31.41
2018-07-16T11:20:07.893Z,31.57
2018-07-16T11:21:07.883Z,31.84
2018-07-16T11:22:07.874Z,31.65
2018-07-16T11:23:07.875Z,32.18
2018-07-16T11:24:07.855Z,32.30
2018-07-16T11:25:07.845Z,32.40
2018-07-16T11:26:07.838Z,32.50
2018-07-16T11:27:07.837Z,32.62
2018-07-16T11:28:07.816Z,32.41
2018-07-16T11:29:07.822Z,32.10
2018-07-16T11:30:07.798Z,32.19
2018-07-16T11:31:07.791Z,31.68
2018-07-16T11:32:07.781Z,30.99
2018-07-16T11:33:07.770Z,31.61
2018-07-16T11:34:07.772Z,31.93
2018-07-16T11:35:07.755Z,32.35
2018-07-16T11:36:07.745Z,32.33
2018-07-16T11:37:07.733Z,32.22
2018-07-16T11:38:07.723Z,32.28
2018-07-16T11:39:07.725Z,32.45
2018-07-16T11:40:07.706Z,32.57
2018-07-16T11:41:07.697Z,32.23
2018-07-16T11:42:07.688Z,32.30
2018-07-16T11:43:07.679Z,32.38
2018-07-16T11:44:07.682Z,31.91
2018-07-16T11:45:07.661Z,32.37
2018-07-16T11:46:07.713Z,31.93
2018-07-16T11:47:07.644Z,31.78
2018-07-16T11:48:07.632Z,32.50
2018-07-16T11:49:07.627Z,32.92
2018-07-16T11:50:07.626Z,33.00
2018-07-16T11:51:07.607Z,32.81
2018-07-16T11:52:07.650Z,32.25
2018-07-16T11:53:07.587Z,31.78
2018-07-16T11:54:07.582Z,32.30
2018-07-16T11:55:07.652Z,32.03
2018-07-16T11:56:07.570Z,32.93
2018-07-16T11:57:07.552Z,33.76
2018-07-16T11:58:07.545Z,34.22
2018-07-16T11:59:07.582Z,34.24
2018-07-16T12:00:07.541Z,33.31
2018-07-16T12:01:07.517Z,33.51
2018-07-16T12:02:07.508Z,33.18
2018-07-16T12:03:07.499Z,33.18
2018-07-16T12:04:07.490Z,33.49
2018-07-16T12:05:07.496Z,33.81
2018-07-16T12:06:07.487Z,33.93
2018-07-16T12:07:07.465Z,32.59
2018-07-16T12:08:07.454Z,32.93
2018-07-16T12:09:07.450Z,33.11
2018-07-16T12:10:07.434Z,32.65
2018-07-16T12:11:07.439Z,32.22
2018-07-16T12:12:07.423Z,32.41
2018-07-16T12:13:07.412Z,32.55
2018-07-16T12:14:07.405Z,32.13
2018-07-16T12:15:07.395Z,32.47
2018-07-16T12:16:07.404Z,32.52
2018-07-16T12:17:07.384Z,33.14
2018-07-16T12:18:07.393Z,34.00
2018-07-16T12:19:07.362Z,34.64
2018-07-16T12:20:07.350Z,34.70
2018-07-16T12:21:07.342Z,34.80
2018-07-16T12:22:07.343Z,34.22
2018-07-16T12:23:07.325Z,34.34
2018-07-16T12:24:07.316Z,34.42
2018-07-16T12:25:07.306Z,34.19
2018-07-16T12:26:07.299Z,33.86
2018-07-16T12:27:07.306Z,34.05
2018-07-16T12:28:07.281Z,33.82
2018-07-16T12:29:07.280Z,34.70
2018-07-16T12:30:07.265Z,34.87
2018-07-16T12:31:07.258Z,34.44
2018-07-16T12:32:07.263Z,34.03
2018-07-16T12:33:07.239Z,34.16
2018-07-16T12:34:07.229Z,33.44
2018-07-16T12:35:07.223Z,32.15
2018-07-16T12:36:07.214Z,31.50
2018-07-16T12:37:07.207Z,32.18
2018-07-16T12:38:07.214Z,32.57
2018-07-16T12:39:07.187Z,32.75
2018-07-16T12:40:07.179Z,33.45
2018-07-16T12:41:07.173Z,33.84
2018-07-16T12:42:07.167Z,34.30
2018-07-16T12:43:07.169Z,34.13
2018-07-16T12:44:07.146Z,34.28
2018-07-16T12:45:07.137Z,34.17
2018-07-16T12:46:07.129Z,34.52
2018-07-16T12:47:07.123Z,34.77
2018-07-16T12:48:07.188Z,35.40
2018-07-16T12:49:07.104Z,35.77
2018-07-16T12:50:07.096Z,35.60
2018-07-16T12:51:07.090Z,36.13
2018-07-16T12:52:07.083Z,34.62